If you wish to contribute or participate in the discussions about articles you are invited to join SKYbrary as a registered user

 Actions

Bristol

From SKYbrary Wiki

EGGD /
Revision as of 16:25, 22 March 2010 by Editor1 (talk | contribs) (Created page with '{{Airport |Airport_Name=Bristol |ICAO_Region=EUR |ICAO_Territory=EG |Location=Bristol, England, United Kingdom |Coordinates=51° 22′ 96″ N, 2° 43′ 15″ W }} __NOTOC__ =Br…')
(diff) ← Older revision | Latest revision (diff) | Newer revision → (diff)
Airport
ICAO: EGGD
Summary
Name Bristol
Region Europe
Territory United Kingdom GB.gif
Location Bristol, England, United Kingdom
Serving
Coordinates 51° 23' 36.00" N, 2° 43' 15.00" W
Runways
Designator Length Width Surface ROPS
9/27 2011 m6,597.769 ft
46 m150.919 ft
ASP yes/yes


METAR
Observation EGGD 041420Z AUTO 26018KT 9999 NCD 05/00 Q0978
Station Bristol / Lulsgate
Date/Time 04 December 2020 14:20:00
Wind direction 260°
Wind speed 18 kts
Lowest cloud amount no clouds detected
Temperature 5°C
Dew point 0°C
Humidity 70%
QNH 978 hPa
Weather condition n/a


Bristol Airport

ICAO: EGGD IATA: BRS

Description

International airport serving...

Climatology

Maps

Terrain

Loading map...

Airport Layout

Loading map...

Accidents & Serious Incidents at or in vicinity of EGGD